Weather at Corpus Christi International Airport

Public forecast

Using degrees Fahrenheit for public forecast. Weather courtesy of forecast.io.

Current aviation weather report (METAR) for Corpus Christi International Airport

2024/05/28 23:51 (retrieved 19 minutes ago)

KCRP 282351Z 11018G31KT 7SM SCT018 SCT023 SCT030 BKN250 31/27 A2986 RMK AO2 PK WND 11031/2330 SLP110 VIS LWR NW T03110267 10356 20311 58021

Closest aviation forecast (TAF) to Corpus Christi International Airport

Forecast is more than 12 hours old.

Closest forecast is Naval Air Station Corpus Christi Truax Field, 12.1 nm (22.4 km) ESE.

2024/05/28 09:29 Ammendment (retrieved 15 hours ago)

TAF AMD KNGP 2809/2907 12010KT 9999 VCSH FEW020 BKN220 QNH2981INS TEMPO 2809/2813 VRB06KT FM281500 12014G20KT 9999 SCT025 SCT035 BKN250 QNH2991INS TEMPO 2815/2819 SCT025 BKN035 BKN250 FM281900 10016G24KT 9999 SCT030 SCT150 BKN250 QNH2983INS TEMPO 2820/2901 11018G26KT FM290100 12016G24KT 9999 SCT018 BKN250 QNH2985INS FM290500 13010KT 9999 VCSH SCT012 SCT020 BKN200 QNH2990INS TEMPO 2905/2907 8000 -SHRA BR SCT010 BKN018 OVC200 AUTOMATED SENSOR METWATCH 2809 TIL 2811 TX33/2820Z TN28/2811Z AMD 0920 FN20044